createdAt,value
2022-07-29T00:02:29.188Z,17.70
2022-07-29T00:04:56.092Z,17.70
2022-07-29T00:07:22.790Z,17.60
2022-07-29T00:09:51.709Z,17.60
2022-07-29T00:12:25.612Z,17.70
2022-07-29T00:14:54.344Z,17.70
2022-07-29T00:17:21.085Z,17.60
2022-07-29T00:22:15.089Z,17.60
2022-07-29T00:24:41.870Z,17.50
2022-07-29T00:27:08.625Z,17.50
2022-07-29T00:29:35.627Z,17.50
2022-07-29T00:32:03.440Z,17.50
2022-07-29T00:34:49.330Z,17.50
2022-07-29T00:37:16.066Z,17.60
2022-07-29T00:39:42.737Z,17.50
2022-07-29T00:42:10.452Z,17.60
2022-07-29T00:44:38.732Z,17.60
2022-07-29T00:47:05.844Z,17.50
2022-07-29T00:52:01.280Z,17.50
2022-07-29T00:54:28.444Z,17.50
2022-07-29T00:59:22.326Z,17.40
2022-07-29T01:04:16.618Z,17.40
2022-07-29T01:09:12.009Z,17.50
2022-07-29T01:11:38.713Z,17.50
2022-07-29T01:14:06.002Z,17.50
2022-07-29T01:16:33.607Z,13.70
2022-07-29T01:19:14.090Z,17.40
2022-07-29T01:21:56.246Z,17.50
2022-07-29T01:24:51.247Z,17.40
2022-07-29T01:27:33.310Z,17.40
2022-07-29T01:30:00.644Z,17.40
2022-07-29T01:32:30.317Z,17.40
2022-07-29T01:35:10.128Z,17.40
2022-07-29T01:38:00.943Z,17.30
2022-07-29T01:40:50.724Z,17.30
2022-07-29T01:43:22.031Z,17.30
2022-07-29T01:46:01.370Z,17.20
2022-07-29T01:48:48.331Z,17.20
2022-07-29T01:51:25.253Z,17.20
2022-07-29T01:53:57.409Z,17.20
2022-07-29T01:56:24.553Z,17.20
2022-07-29T01:58:51.320Z,17.20
2022-07-29T02:03:47.178Z,17.10
2022-07-29T02:13:36.576Z,17.00
2022-07-29T02:16:04.043Z,16.90
2022-07-29T02:18:31.987Z,17.10
2022-07-29T02:20:59.850Z,17.00
2022-07-29T02:23:26.580Z,17.00
2022-07-29T02:25:54.970Z,17.00
2022-07-29T02:30:49.139Z,17.00
2022-07-29T02:33:17.332Z,17.00
2022-07-29T02:35:44.544Z,17.10
2022-07-29T02:38:31.516Z,17.00
2022-07-29T02:45:53.806Z,17.00
2022-07-29T02:48:21.048Z,17.00
2022-07-29T02:50:51.294Z,17.00
2022-07-29T02:53:19.800Z,17.00
2022-07-29T02:55:51.949Z,17.00
2022-07-29T02:58:34.627Z,16.90
2022-07-29T03:01:03.980Z,16.90
2022-07-29T03:03:36.939Z,16.80
2022-07-29T03:08:32.031Z,16.80
2022-07-29T03:10:58.971Z,16.80
2022-07-29T03:15:52.899Z,16.80
2022-07-29T03:23:13.888Z,16.80
2022-07-29T03:25:40.615Z,16.70
2022-07-29T03:28:07.353Z,16.70
2022-07-29T03:33:01.928Z,16.60
2022-07-29T03:35:29.315Z,16.60
2022-07-29T03:37:56.034Z,16.50
2022-07-29T03:40:28.961Z,16.80
2022-07-29T03:45:22.943Z,16.40
2022-07-29T03:47:59.921Z,16.40
2022-07-29T03:50:27.590Z,16.80
2022-07-29T03:52:54.306Z,16.30
2022-07-29T03:55:21.067Z,16.30
2022-07-29T03:57:48.303Z,12.40
2022-07-29T04:00:16.403Z,16.50
2022-07-29T04:10:09.891Z,16.20
2022-07-29T04:12:36.651Z,16.30
2022-07-29T04:15:06.746Z,16.30
2022-07-29T04:17:33.446Z,16.30
2022-07-29T04:20:00.221Z,16.30
2022-07-29T04:22:26.953Z,16.20
2022-07-29T04:24:54.284Z,16.20
2022-07-29T04:29:56.120Z,16.40
2022-07-29T04:39:45.409Z,16.70
2022-07-29T04:44:43.052Z,16.90
2022-07-29T04:47:10.054Z,17.30
2022-07-29T04:49:39.549Z,18.40
2022-07-29T04:57:01.244Z,19.00
2022-07-29T04:59:28.235Z,19.00
2022-07-29T05:01:55.199Z,19.10
2022-07-29T05:04:21.995Z,19.10
2022-07-29T05:06:49.377Z,19.20
2022-07-29T05:24:08.118Z,19.60
2022-07-29T05:29:02.111Z,19.70
2022-07-29T05:31:28.874Z,20.00
2022-07-29T05:33:55.677Z,19.60
2022-07-29T05:36:22.516Z,19.30
2022-07-29T05:43:43.571Z,18.90
2022-07-29T05:46:10.364Z,18.90
2022-07-29T05:51:04.469Z,19.20
2022-07-29T05:53:31.281Z,19.20
2022-07-29T05:55:57.994Z,19.40
2022-07-29T06:00:51.881Z,19.80
2022-07-29T06:03:18.608Z,19.80
2022-07-29T06:05:45.455Z,19.90
2022-07-29T06:08:12.145Z,19.70
2022-07-29T06:10:39.212Z,19.40
2022-07-29T06:13:06.259Z,19.30
2022-07-29T06:15:33.163Z,19.20
2022-07-29T06:20:32.380Z,19.70
2022-07-29T06:23:01.919Z,20.20
2022-07-29T06:25:31.821Z,20.70
2022-07-29T06:27:58.648Z,20.70
2022-07-29T06:30:25.398Z,20.30
2022-07-29T06:32:52.360Z,20.10
2022-07-29T06:35:39.665Z,20.00
2022-07-29T06:41:03.599Z,20.60
2022-07-29T06:43:36.145Z,21.00
2022-07-29T06:46:21.012Z,21.10
2022-07-29T06:48:51.100Z,21.50
2022-07-29T06:51:22.195Z,22.00
2022-07-29T06:54:01.653Z,22.10
2022-07-29T06:56:39.226Z,22.10
2022-07-29T06:59:07.608Z,21.80
2022-07-29T07:01:34.475Z,21.80
2022-07-29T07:04:01.313Z,21.70
2022-07-29T07:06:28.441Z,21.70
2022-07-29T07:08:55.208Z,21.80
2022-07-29T07:11:21.924Z,22.00
2022-07-29T07:16:20.105Z,22.70
2022-07-29T07:18:46.824Z,22.50
2022-07-29T07:21:19.070Z,22.50
2022-07-29T07:23:46.707Z,22.60
2022-07-29T07:26:13.434Z,23.10
2022-07-29T07:28:40.119Z,23.10
2022-07-29T07:31:06.847Z,23.10
2022-07-29T07:33:33.523Z,22.80
2022-07-29T07:36:00.230Z,22.70
2022-07-29T07:38:26.901Z,22.70
2022-07-29T07:40:53.600Z,22.50
2022-07-29T07:43:20.398Z,22.60
2022-07-29T07:45:47.165Z,22.60
2022-07-29T07:48:14.059Z,22.60
2022-07-29T07:50:40.801Z,22.70
2022-07-29T07:53:07.662Z,22.70
2022-07-29T07:55:53.569Z,23.50
2022-07-29T07:58:21.037Z,23.90
2022-07-29T08:00:48.180Z,24.00
2022-07-29T08:03:17.183Z,23.60
2022-07-29T08:05:44.214Z,23.30
2022-07-29T08:08:10.923Z,23.00
2022-07-29T08:10:56.302Z,23.10
2022-07-29T08:13:28.678Z,22.90
2022-07-29T08:15:58.914Z,23.00
2022-07-29T08:18:26.807Z,22.70
2022-07-29T08:20:53.627Z,22.70
2022-07-29T08:28:17.685Z,22.40
2022-07-29T08:30:44.462Z,22.60
2022-07-29T08:35:39.346Z,22.70
2022-07-29T08:38:06.063Z,22.40
2022-07-29T08:40:32.916Z,22.40
2022-07-29T08:43:04.660Z,22.60
2022-07-29T08:45:42.430Z,22.60
2022-07-29T08:48:14.796Z,22.60
2022-07-29T08:50:42.529Z,22.50
2022-07-29T08:53:17.592Z,22.50
2022-07-29T08:55:44.990Z,22.70
2022-07-29T08:58:11.740Z,22.90
2022-07-29T09:00:44.253Z,22.60
2022-07-29T09:03:13.849Z,22.80
2022-07-29T09:05:47.524Z,22.70
2022-07-29T09:08:15.246Z,22.80
2022-07-29T09:10:41.967Z,22.50
2022-07-29T09:13:08.774Z,22.70
2022-07-29T09:15:35.598Z,22.90
2022-07-29T09:20:58.954Z,23.20
2022-07-29T09:25:52.838Z,23.00
2022-07-29T09:28:19.544Z,23.10
2022-07-29T09:30:57.062Z,23.30
2022-07-29T09:33:24.284Z,22.90
2022-07-29T09:36:04.754Z,22.80
2022-07-29T09:41:05.481Z,23.20
2022-07-29T09:43:33.019Z,23.70
2022-07-29T09:46:13.066Z,24.20
2022-07-29T09:48:39.938Z,24.70
2022-07-29T09:51:07.438Z,24.60
2022-07-29T09:53:38.678Z,24.80
2022-07-29T09:56:05.917Z,24.30
2022-07-29T09:58:34.633Z,24.40
2022-07-29T10:01:01.417Z,24.40
2022-07-29T10:03:28.306Z,24.90
2022-07-29T10:06:11.504Z,24.60
2022-07-29T10:08:38.593Z,24.70
2022-07-29T10:11:15.661Z,25.60
2022-07-29T10:13:43.414Z,25.40
2022-07-29T10:16:10.409Z,25.70
2022-07-29T10:18:41.636Z,25.60
2022-07-29T10:21:08.324Z,26.10
2022-07-29T10:23:46.472Z,26.10
2022-07-29T10:26:14.024Z,25.70
2022-07-29T10:28:40.749Z,24.90
2022-07-29T10:31:09.221Z,25.50
2022-07-29T10:34:04.533Z,25.50
2022-07-29T10:37:00.537Z,25.20
2022-07-29T10:39:41.803Z,25.30
2022-07-29T10:42:14.683Z,25.30
2022-07-29T10:44:46.693Z,26.70
2022-07-29T10:47:22.008Z,25.70
2022-07-29T10:50:03.754Z,26.40
2022-07-29T10:52:55.449Z,26.40
2022-07-29T10:55:49.389Z,26.10
2022-07-29T10:58:17.843Z,26.10
2022-07-29T11:00:45.760Z,25.90
2022-07-29T11:03:50.711Z,25.90
2022-07-29T11:06:26.835Z,25.90
2022-07-29T11:09:25.878Z,26.50
2022-07-29T11:12:02.416Z,26.50
2022-07-29T11:14:55.689Z,26.60
2022-07-29T11:17:23.429Z,26.70
2022-07-29T11:19:52.264Z,26.90
2022-07-29T11:22:34.862Z,27.20
2022-07-29T11:25:17.716Z,27.10
2022-07-29T11:27:45.870Z,26.90
2022-07-29T11:30:13.139Z,27.10
2022-07-29T11:32:44.982Z,28.00
2022-07-29T11:37:52.838Z,27.60
2022-07-29T11:40:24.516Z,27.00
2022-07-29T11:42:52.233Z,26.90
2022-07-29T11:45:43.337Z,26.80
2022-07-29T11:48:29.937Z,26.80
2022-07-29T11:50:59.203Z,26.50
2022-07-29T11:53:25.916Z,26.70
2022-07-29T11:55:56.294Z,26.80
2022-07-29T11:58:26.256Z,27.20
2022-07-29T12:01:15.187Z,27.30
2022-07-29T12:03:43.715Z,27.10
2022-07-29T12:06:15.221Z,26.90
2022-07-29T12:08:43.619Z,27.30
2022-07-29T12:11:22.832Z,27.70
2022-07-29T12:13:51.831Z,27.00
2022-07-29T12:16:26.165Z,26.60
2022-07-29T12:19:03.741Z,26.20
2022-07-29T12:21:56.297Z,26.70
2022-07-29T12:24:27.005Z,26.20
2022-07-29T12:26:57.977Z,26.40
2022-07-29T12:29:33.628Z,26.40
2022-07-29T12:32:02.201Z,26.30
2022-07-29T12:34:29.049Z,26.40
2022-07-29T12:36:56.565Z,26.20
2022-07-29T12:39:23.330Z,26.00
2022-07-29T12:41:50.050Z,25.90
2022-07-29T12:44:16.814Z,25.60
2022-07-29T12:46:43.637Z,25.60
2022-07-29T12:49:10.559Z,25.40
2022-07-29T12:51:38.868Z,25.40
2022-07-29T12:54:11.235Z,25.20
2022-07-29T12:56:43.719Z,25.00
2022-07-29T12:59:22.296Z,25.10
2022-07-29T13:01:50.438Z,25.00
2022-07-29T13:04:30.743Z,24.90
2022-07-29T13:07:01.334Z,24.90
2022-07-29T13:09:44.621Z,24.80
2022-07-29T13:12:13.134Z,24.80
2022-07-29T13:14:43.685Z,24.80
2022-07-29T13:17:12.148Z,24.70
2022-07-29T13:19:43.484Z,24.70
2022-07-29T13:22:11.285Z,24.80
2022-07-29T13:24:53.272Z,24.80
2022-07-29T13:27:21.239Z,24.70
2022-07-29T13:29:48.147Z,24.70
2022-07-29T13:32:14.915Z,24.90
2022-07-29T13:34:41.892Z,24.70
2022-07-29T13:37:08.625Z,24.60
2022-07-29T13:39:35.428Z,24.80
2022-07-29T13:42:02.170Z,25.00
2022-07-29T13:46:59.791Z,25.00
2022-07-29T13:49:27.084Z,25.10
2022-07-29T13:51:54.082Z,25.00
2022-07-29T13:54:23.288Z,25.10
2022-07-29T13:56:53.368Z,25.00
2022-07-29T13:59:20.508Z,25.00
2022-07-29T14:01:47.324Z,25.10
2022-07-29T14:04:14.060Z,25.20
2022-07-29T14:06:40.847Z,25.30
2022-07-29T14:09:09.443Z,25.30
2022-07-29T14:11:36.714Z,25.50
2022-07-29T14:14:03.520Z,25.90
2022-07-29T14:16:30.273Z,26.30
2022-07-29T14:21:26.316Z,26.60
2022-07-29T14:23:53.802Z,27.10
2022-07-29T14:26:24.070Z,27.30
2022-07-29T14:28:51.166Z,27.00
2022-07-29T14:31:17.958Z,26.90
2022-07-29T14:33:46.269Z,27.00
2022-07-29T14:36:16.133Z,27.20
2022-07-29T14:41:10.108Z,27.00
2022-07-29T14:43:36.878Z,26.50
2022-07-29T14:46:08.058Z,26.70
2022-07-29T14:48:35.131Z,27.10
2022-07-29T14:51:04.667Z,27.10
2022-07-29T14:53:31.715Z,26.60
2022-07-29T14:56:06.241Z,26.40
2022-07-29T14:58:50.154Z,26.40
2022-07-29T15:01:20.707Z,26.60
2022-07-29T15:03:47.500Z,26.40
2022-07-29T15:06:14.212Z,26.20
2022-07-29T15:08:40.999Z,26.00
2022-07-29T15:11:07.719Z,26.00
2022-07-29T15:13:34.776Z,25.90
2022-07-29T15:16:01.474Z,25.90
2022-07-29T15:18:28.208Z,26.00
2022-07-29T15:20:54.903Z,26.00
2022-07-29T15:23:21.657Z,25.90
2022-07-29T15:25:48.380Z,25.70
2022-07-29T15:28:15.106Z,25.50
2022-07-29T15:30:44.856Z,25.40
2022-07-29T15:33:11.751Z,25.50
2022-07-29T15:35:40.071Z,25.30
2022-07-29T15:38:07.624Z,25.30
2022-07-29T15:40:34.316Z,25.10
2022-07-29T15:43:06.527Z,24.90
2022-07-29T15:45:40.894Z,24.60
2022-07-29T15:50:35.748Z,24.50
2022-07-29T15:53:02.599Z,24.40
2022-07-29T15:55:29.379Z,24.30
2022-07-29T15:58:00.248Z,24.20
2022-07-29T16:00:27.435Z,24.10
2022-07-29T16:02:54.125Z,24.00
2022-07-29T16:05:20.866Z,24.00
2022-07-29T16:07:47.706Z,23.80
2022-07-29T16:10:14.371Z,23.70
2022-07-29T16:12:41.054Z,27.30
2022-07-29T16:15:10.469Z,23.30
2022-07-29T16:17:38.115Z,23.20
2022-07-29T16:20:06.153Z,23.10
2022-07-29T16:22:32.854Z,23.10
2022-07-29T16:24:59.635Z,22.90
2022-07-29T16:32:30.743Z,22.60
2022-07-29T16:34:58.537Z,22.80
2022-07-29T16:37:25.216Z,22.50
2022-07-29T16:42:44.302Z,22.40
2022-07-29T16:47:37.357Z,21.30
2022-07-29T16:50:05.083Z,20.80
2022-07-29T16:57:26.134Z,19.70
2022-07-29T17:02:20.052Z,19.10
2022-07-29T17:07:14.378Z,18.70
2022-07-29T17:09:41.322Z,18.70
2022-07-29T17:12:08.381Z,18.50
2022-07-29T17:14:35.088Z,18.40
2022-07-29T17:19:31.308Z,18.20
2022-07-29T17:22:05.046Z,18.10
2022-07-29T17:24:36.168Z,18.20
2022-07-29T17:27:02.990Z,18.10
2022-07-29T17:29:29.745Z,20.90
2022-07-29T17:34:26.260Z,17.80
2022-07-29T17:41:47.470Z,17.70
2022-07-29T17:44:14.314Z,17.70
2022-07-29T17:46:41.283Z,17.80
2022-07-29T17:49:08.231Z,17.80
2022-07-29T17:51:35.020Z,22.00
2022-07-29T18:01:23.859Z,17.60
2022-07-29T18:03:50.715Z,17.50
2022-07-29T18:08:47.530Z,17.60
2022-07-29T18:13:42.220Z,17.60
2022-07-29T18:16:11.961Z,17.50
2022-07-29T18:18:38.769Z,17.50
2022-07-29T18:23:32.849Z,17.50
2022-07-29T18:28:26.858Z,17.40
2022-07-29T18:30:53.725Z,17.40
2022-07-29T18:33:22.031Z,17.40
2022-07-29T18:35:50.782Z,17.40
2022-07-29T18:50:40.598Z,17.40
2022-07-29T18:53:07.433Z,17.40
2022-07-29T19:02:56.761Z,17.40
2022-07-29T19:05:23.708Z,17.40
2022-07-29T19:07:50.633Z,17.40
2022-07-29T19:17:46.891Z,17.40
2022-07-29T19:20:14.424Z,17.30
2022-07-29T19:27:36.707Z,17.40
2022-07-29T19:30:06.138Z,17.40
2022-07-29T19:32:33.070Z,17.40
2022-07-29T19:35:18.325Z,14.50
2022-07-29T19:37:45.271Z,17.40
2022-07-29T19:42:39.955Z,17.40
2022-07-29T19:45:07.105Z,17.40
2022-07-29T19:47:33.999Z,17.40
2022-07-29T19:50:01.023Z,17.40
2022-07-29T19:52:28.161Z,17.40
2022-07-29T20:04:45.592Z,17.40
2022-07-29T20:07:13.075Z,17.50
2022-07-29T20:12:08.962Z,17.50
2022-07-29T20:14:35.838Z,17.50
2022-07-29T20:17:02.855Z,17.50
2022-07-29T20:26:52.543Z,17.60
2022-07-29T20:36:50.395Z,17.70
2022-07-29T20:39:17.161Z,17.70
2022-07-29T20:41:44.350Z,17.60
2022-07-29T20:46:39.427Z,17.70
2022-07-29T20:49:06.422Z,17.70
2022-07-29T20:51:33.279Z,17.80
2022-07-29T20:54:10.986Z,17.70
2022-07-29T20:56:38.178Z,17.80
2022-07-29T20:59:05.076Z,17.80
2022-07-29T21:14:09.657Z,17.80
2022-07-29T21:19:05.409Z,17.70
2022-07-29T21:24:02.534Z,17.70
2022-07-29T21:39:07.248Z,17.60
2022-07-29T21:44:02.082Z,17.50
2022-07-29T21:56:19.986Z,17.30
2022-07-29T22:08:45.813Z,17.30
2022-07-29T22:11:13.319Z,17.30
2022-07-29T22:13:40.074Z,17.30
2022-07-29T22:16:07.143Z,17.30
2022-07-29T22:18:33.873Z,17.40
2022-07-29T22:21:00.588Z,17.40
2022-07-29T22:28:21.915Z,17.40
2022-07-29T22:30:48.720Z,17.40
2022-07-29T22:35:45.010Z,17.40
2022-07-29T22:38:15.652Z,17.30
2022-07-29T22:43:10.722Z,17.30
2022-07-29T22:45:37.555Z,17.30
2022-07-29T22:48:05.310Z,17.20
2022-07-29T22:50:32.024Z,17.30
2022-07-29T22:57:53.007Z,17.30
2022-07-29T23:10:09.999Z,17.30
2022-07-29T23:15:05.177Z,17.20
2022-07-29T23:20:07.894Z,17.20
2022-07-29T23:22:35.754Z,17.30
2022-07-29T23:25:02.487Z,17.20
2022-07-29T23:27:29.238Z,17.20
2022-07-29T23:29:56.003Z,17.10
2022-07-29T23:32:22.736Z,17.10
2022-07-29T23:34:49.434Z,17.00
2022-07-29T23:37:16.138Z,17.00
2022-07-29T23:39:42.886Z,17.00
2022-07-29T23:47:04.340Z,16.90
2022-07-29T23:49:31.214Z,16.90
2022-07-29T23:54:25.039Z,16.80
2022-07-29T23:56:51.769Z,16.80
2022-07-29T23:59:18.527Z,16.70
